sensor_id;sensor_type;location;lat;lon;timestamp;temperature;humidity
2757;DHT22;1386;50.862;6.494;2024-02-26T04:59:44;6.20;99.90
2757;DHT22;1386;50.862;6.494;2024-02-26T05:02:11;6.30;99.90
2757;DHT22;1386;50.862;6.494;2024-02-26T05:04:38;6.30;99.90
2757;DHT22;1386;50.862;6.494;2024-02-26T05:07:05;6.30;99.90
2757;DHT22;1386;50.862;6.494;2024-02-26T05:09:32;6.20;99.90
2757;DHT22;1386;50.862;6.494;2024-02-26T05:11:59;6.20;99.90
2757;DHT22;1386;50.862;6.494;2024-02-26T05:14:26;6.30;99.90
2757;DHT22;1386;50.862;6.494;2024-02-26T05:16:54;6.20;99.90
2757;DHT22;1386;50.862;6.494;2024-02-26T05:19:21;6.20;99.90
2757;DHT22;1386;50.862;6.494;2024-02-26T05:21:48;6.20;99.90
2757;DHT22;1386;50.862;6.494;2024-02-26T05:24:16;6.20;99.90
2757;DHT22;1386;50.862;6.494;2024-02-26T05:26:43;6.20;99.90
2757;DHT22;1386;50.862;6.494;2024-02-26T05:29:10;6.30;99.90
2757;DHT22;1386;50.862;6.494;2024-02-26T05:31:37;6.30;99.90
2757;DHT22;1386;50.862;6.494;2024-02-26T05:34:07;6.30;99.90
2757;DHT22;1386;50.862;6.494;2024-02-26T05:36:34;6.30;99.90
2757;DHT22;1386;50.862;6.494;2024-02-26T05:39:01;6.30;99.90
2757;DHT22;1386;50.862;6.494;2024-02-26T05:41:29;6.30;99.90
2757;DHT22;1386;50.862;6.494;2024-02-26T05:43:56;6.30;99.90
2757;DHT22;1386;50.862;6.494;2024-02-26T05:46:33;6.30;99.90
2757;DHT22;1386;50.862;6.494;2024-02-26T05:49:09;6.30;99.90
2757;DHT22;1386;50.862;6.494;2024-02-26T05:51:35;6.30;99.90
2757;DHT22;1386;50.862;6.494;2024-02-26T05:54:03;6.30;99.90
2757;DHT22;1386;50.862;6.494;2024-02-26T05:56:29;6.30;99.90
2757;DHT22;1386;50.862;6.494;2024-02-26T05:58:56;6.30;99.90
2757;DHT22;1386;50.862;6.494;2024-02-26T06:01:23;6.30;99.90
2757;DHT22;1386;50.862;6.494;2024-02-26T06:03:51;6.30;99.90
2757;DHT22;1386;50.862;6.494;2024-02-26T06:06:19;6.30;99.90
2757;DHT22;1386;50.862;6.494;2024-02-26T06:08:48;6.30;99.90
2757;DHT22;1386;50.862;6.494;2024-02-26T06:11:15;6.20;99.90
2757;DHT22;1386;50.862;6.494;2024-02-26T06:13:42;6.20;99.90
2757;DHT22;1386;50.862;6.494;2024-02-26T06:16:09;6.30;99.90
2757;DHT22;1386;50.862;6.494;2024-02-26T06:18:36;6.30;99.90
2757;DHT22;1386;50.862;6.494;2024-02-26T06:21:03;6.30;99.90
2757;DHT22;1386;50.862;6.494;2024-02-26T06:23:32;6.20;99.90
2757;DHT22;1386;50.862;6.494;2024-02-26T07:57:09;6.20;99.90
2757;DHT22;1386;50.862;6.494;2024-02-26T07:59:36;6.20;99.90
2757;DHT22;1386;50.862;6.494;2024-02-26T08:02:03;6.20;99.90
2757;DHT22;1386;50.862;6.494;2024-02-26T08:04:31;6.20;99.90
2757;DHT22;1386;50.862;6.494;2024-02-26T08:06:58;6.20;99.90
2757;DHT22;1386;50.862;6.494;2024-02-26T08:09:24;6.20;99.90
2757;DHT22;1386;50.862;6.494;2024-02-26T08:11:51;6.20;99.90
2757;DHT22;1386;50.862;6.494;2024-02-26T08:14:20;6.20;99.90
2757;DHT22;1386;50.862;6.494;2024-02-26T08:16:46;6.20;99.90
2757;DHT22;1386;50.862;6.494;2024-02-26T08:19:14;6.20;99.90
2757;DHT22;1386;50.862;6.494;2024-02-26T08:21:41;6.20;99.90
2757;DHT22;1386;50.862;6.494;2024-02-26T08:24:08;6.20;99.90
2757;DHT22;1386;50.862;6.494;2024-02-26T08:26:35;6.20;99.90
2757;DHT22;1386;50.862;6.494;2024-02-26T08:29:02;6.20;99.90
2757;DHT22;1386;50.862;6.494;2024-02-26T08:31:30;6.20;99.90
2757;DHT22;1386;50.862;6.494;2024-02-26T08:33:57;6.20;99.90
2757;DHT22;1386;50.862;6.494;2024-02-26T08:36:26;6.30;99.90
2757;DHT22;1386;50.862;6.494;2024-02-26T08:38:53;6.20;99.90
2757;DHT22;1386;50.862;6.494;2024-02-26T08:41:20;6.20;99.90
2757;DHT22;1386;50.862;6.494;2024-02-26T08:43:47;6.20;99.90
2757;DHT22;1386;50.862;6.494;2024-02-26T08:46:14;6.20;99.90
2757;DHT22;1386;50.862;6.494;2024-02-26T08:48:42;6.30;99.90
2757;DHT22;1386;50.862;6.494;2024-02-26T08:51:09;6.30;99.90
2757;DHT22;1386;50.862;6.494;2024-02-26T08:53:37;6.20;99.90
2757;DHT22;1386;50.862;6.494;2024-02-26T08:56:04;6.20;99.90
2757;DHT22;1386;50.862;6.494;2024-02-26T08:58:31;6.20;99.90
2757;DHT22;1386;50.862;6.494;2024-02-26T09:00:58;6.30;99.90
2757;DHT22;1386;50.862;6.494;2024-02-26T09:03:25;6.30;99.90
2757;DHT22;1386;50.862;6.494;2024-02-26T09:06:18;6.30;99.90
2757;DHT22;1386;50.862;6.494;2024-02-26T09:08:45;6.30;99.90
2757;DHT22;1386;50.862;6.494;2024-02-26T09:11:12;6.30;99.90
2757;DHT22;1386;50.862;6.494;2024-02-26T09:13:56;6.30;99.90
2757;DHT22;1386;50.862;6.494;2024-02-26T09:16:26;6.30;99.90
2757;DHT22;1386;50.862;6.494;2024-02-26T09:18:52;6.30;99.90
2757;DHT22;1386;50.862;6.494;2024-02-26T09:21:21;6.30;99.90
2757;DHT22;1386;50.862;6.494;2024-02-26T09:23:49;6.30;99.90
2757;DHT22;1386;50.862;6.494;2024-02-26T09:26:17;6.30;99.90
2757;DHT22;1386;50.862;6.494;2024-02-26T09:28:44;6.30;99.90
2757;DHT22;1386;50.862;6.494;2024-02-26T09:31:11;6.30;99.90
2757;DHT22;1386;50.862;6.494;2024-02-26T09:33:38;6.30;99.90
2757;DHT22;1386;50.862;6.494;2024-02-26T09:36:05;6.30;99.90
2757;DHT22;1386;50.862;6.494;2024-02-26T09:38:34;6.30;99.90
2757;DHT22;1386;50.862;6.494;2024-02-26T09:41:03;6.30;99.90
2757;DHT22;1386;50.862;6.494;2024-02-26T09:43:34;6.30;99.90
2757;DHT22;1386;50.862;6.494;2024-02-26T09:46:02;6.30;99.90
2757;DHT22;1386;50.862;6.494;2024-02-26T09:48:30;6.30;99.90
2757;DHT22;1386;50.862;6.494;2024-02-26T09:51:03;6.40;99.90
2757;DHT22;1386;50.862;6.494;2024-02-26T09:53:33;6.40;99.90
2757;DHT22;1386;50.862;6.494;2024-02-26T09:56:05;6.40;99.90
2757;DHT22;1386;50.862;6.494;2024-02-26T10:01:47;6.40;99.90
2757;DHT22;1386;50.862;6.494;2024-02-26T10:04:15;6.40;99.90
2757;DHT22;1386;50.862;6.494;2024-02-26T10:06:53;6.40;99.90
2757;DHT22;1386;50.862;6.494;2024-02-26T10:09:43;6.40;99.90
2757;DHT22;1386;50.862;6.494;2024-02-26T10:12:11;6.40;99.90
2757;DHT22;1386;50.862;6.494;2024-02-26T10:14:38;6.50;99.90
2757;DHT22;1386;50.862;6.494;2024-02-26T10:17:07;6.50;99.90
2757;DHT22;1386;50.862;6.494;2024-02-26T10:19:35;6.60;99.90
2757;DHT22;1386;50.862;6.494;2024-02-26T10:22:02;6.60;99.90
2757;DHT22;1386;50.862;6.494;2024-02-26T10:24:30;6.70;99.90
2757;DHT22;1386;50.862;6.494;2024-02-26T10:26:59;6.80;99.90
2757;DHT22;1386;50.862;6.494;2024-02-26T10:29:25;6.80;99.90
2757;DHT22;1386;50.862;6.494;2024-02-26T10:31:53;6.70;99.90
2757;DHT22;1386;50.862;6.494;2024-02-26T10:34:31;6.70;99.90
2757;DHT22;1386;50.862;6.494;2024-02-26T10:37:22;6.70;99.90
2757;DHT22;1386;50.862;6.494;2024-02-26T10:40:04;6.70;99.90
2757;DHT22;1386;50.862;6.494;2024-02-26T10:42:33;6.70;99.90
2757;DHT22;1386;50.862;6.494;2024-02-26T10:44:59;6.70;99.90
2757;DHT22;1386;50.862;6.494;2024-02-26T10:47:28;6.70;99.90
2757;DHT22;1386;50.862;6.494;2024-02-26T10:49:56;6.80;99.90
2757;DHT22;1386;50.862;6.494;2024-02-26T10:52:23;6.80;99.90
2757;DHT22;1386;50.862;6.494;2024-02-26T10:55:05;6.80;99.90
2757;DHT22;1386;50.862;6.494;2024-02-26T10:57:45;6.70;99.90
2757;DHT22;1386;50.862;6.494;2024-02-26T11:00:15;6.70;99.90
2757;DHT22;1386;50.862;6.494;2024-02-26T11:02:44;6.80;99.90
2757;DHT22;1386;50.862;6.494;2024-02-26T11:05:11;6.70;99.90
2757;DHT22;1386;50.862;6.494;2024-02-26T11:07:41;6.80;99.90
2757;DHT22;1386;50.862;6.494;2024-02-26T11:10:09;6.80;99.90
2757;DHT22;1386;50.862;6.494;2024-02-26T11:12:39;6.70;99.90
2757;DHT22;1386;50.862;6.494;2024-02-26T11:15:09;6.90;99.90
2757;DHT22;1386;50.862;6.494;2024-02-26T11:17:36;7.10;99.90
2757;DHT22;1386;50.862;6.494;2024-02-26T11:20:05;7.10;99.90
2757;DHT22;1386;50.862;6.494;2024-02-26T11:22:37;7.20;99.90
2757;DHT22;1386;50.862;6.494;2024-02-26T11:25:05;7.20;99.90
2757;DHT22;1386;50.862;6.494;2024-02-26T11:27:37;7.20;99.90
2757;DHT22;1386;50.862;6.494;2024-02-26T11:30:10;7.10;99.90
2757;DHT22;1386;50.862;6.494;2024-02-26T11:32:38;7.00;99.90
2757;DHT22;1386;50.862;6.494;2024-02-26T11:35:06;7.00;99.90
2757;DHT22;1386;50.862;6.494;2024-02-26T11:37:36;6.90;99.90
2757;DHT22;1386;50.862;6.494;2024-02-26T11:40:16;6.90;99.90
2757;DHT22;1386;50.862;6.494;2024-02-26T11:42:48;6.90;99.90
2757;DHT22;1386;50.862;6.494;2024-02-26T11:45:53;6.90;99.90
2757;DHT22;1386;50.862;6.494;2024-02-26T11:48:25;6.90;99.90
2757;DHT22;1386;50.862;6.494;2024-02-26T11:50:54;6.90;99.90
2757;DHT22;1386;50.862;6.494;2024-02-26T11:53:25;6.90;99.90
2757;DHT22;1386;50.862;6.494;2024-02-26T11:56:21;6.90;99.90
2757;DHT22;1386;50.862;6.494;2024-02-26T11:58:48;6.90;99.90
2757;DHT22;1386;50.862;6.494;2024-02-26T12:01:43;6.90;99.90
2757;DHT22;1386;50.862;6.494;2024-02-26T12:04:18;6.90;99.90
2757;DHT22;1386;50.862;6.494;2024-02-26T12:06:49;6.90;99.90
2757;DHT22;1386;50.862;6.494;2024-02-26T12:09:33;6.90;99.90
2757;DHT22;1386;50.862;6.494;2024-02-26T12:12:01;6.90;99.90
2757;DHT22;1386;50.862;6.494;2024-02-26T12:14:28;6.90;99.90
2757;DHT22;1386;50.862;6.494;2024-02-26T12:16:57;6.90;99.90
2757;DHT22;1386;50.862;6.494;2024-02-26T12:19:24;6.90;99.90
2757;DHT22;1386;50.862;6.494;2024-02-26T12:21:52;6.90;99.90
2757;DHT22;1386;50.862;6.494;2024-02-26T12:24:20;6.90;99.90
2757;DHT22;1386;50.862;6.494;2024-02-26T12:26:47;6.90;99.90
2757;DHT22;1386;50.862;6.494;2024-02-26T12:29:14;6.90;99.90
2757;DHT22;1386;50.862;6.494;2024-02-26T12:31:44;7.00;99.90
2757;DHT22;1386;50.862;6.494;2024-02-26T12:34:13;7.00;99.90
2757;DHT22;1386;50.862;6.494;2024-02-26T12:36:41;7.00;99.90
2757;DHT22;1386;50.862;6.494;2024-02-26T12:39:08;7.00;99.90
2757;DHT22;1386;50.862;6.494;2024-02-26T12:41:35;7.00;99.90
2757;DHT22;1386;50.862;6.494;2024-02-26T12:44:04;7.00;99.90
2757;DHT22;1386;50.862;6.494;2024-02-26T12:46:32;7.00;99.90
2757;DHT22;1386;50.862;6.494;2024-02-26T12:48:59;7.00;99.90
2757;DHT22;1386;50.862;6.494;2024-02-26T12:51:28;7.00;99.90
2757;DHT22;1386;50.862;6.494;2024-02-26T12:54:10;7.00;99.90
2757;DHT22;1386;50.862;6.494;2024-02-26T12:56:37;7.00;99.90
2757;DHT22;1386;50.862;6.494;2024-02-26T12:59:04;7.00;99.90
2757;DHT22;1386;50.862;6.494;2024-02-26T13:01:31;7.00;99.90
2757;DHT22;1386;50.862;6.494;2024-02-26T13:03:58;7.00;99.90
2757;DHT22;1386;50.862;6.494;2024-02-26T13:06:27;7.00;99.90
2757;DHT22;1386;50.862;6.494;2024-02-26T13:08:57;7.00;99.90
2757;DHT22;1386;50.862;6.494;2024-02-26T13:11:30;7.00;99.90
2757;DHT22;1386;50.862;6.494;2024-02-26T13:14:01;7.00;99.90
2757;DHT22;1386;50.862;6.494;2024-02-26T13:16:34;7.00;99.90
2757;DHT22;1386;50.862;6.494;2024-02-26T13:19:08;7.00;99.90
2757;DHT22;1386;50.862;6.494;2024-02-26T13:21:37;7.00;99.90
2757;DHT22;1386;50.862;6.494;2024-02-26T13:24:06;7.00;99.90
2757;DHT22;1386;50.862;6.494;2024-02-26T13:26:33;7.00;99.90
2757;DHT22;1386;50.862;6.494;2024-02-26T13:29:00;7.00;99.90
2757;DHT22;1386;50.862;6.494;2024-02-26T13:31:29;7.00;99.90
2757;DHT22;1386;50.862;6.494;2024-02-26T13:33:55;7.10;99.90
2757;DHT22;1386;50.862;6.494;2024-02-26T13:36:23;7.00;99.90
2757;DHT22;1386;50.862;6.494;2024-02-26T13:38:54;7.00;99.90
2757;DHT22;1386;50.862;6.494;2024-02-26T13:41:22;7.10;99.90
2757;DHT22;1386;50.862;6.494;2024-02-26T13:43:50;7.10;99.90
2757;DHT22;1386;50.862;6.494;2024-02-26T13:50:14;7.00;99.90
2757;DHT22;1386;50.862;6.494;2024-02-26T13:52:42;7.00;99.90
2757;DHT22;1386;50.862;6.494;2024-02-26T13:55:10;7.00;99.90
2757;DHT22;1386;50.862;6.494;2024-02-26T13:57:37;7.00;99.90
2757;DHT22;1386;50.862;6.494;2024-02-26T14:00:40;7.00;99.90
2757;DHT22;1386;50.862;6.494;2024-02-26T14:03:15;7.10;99.90
2757;DHT22;1386;50.862;6.494;2024-02-26T14:05:59;7.00;99.90
2757;DHT22;1386;50.862;6.494;2024-02-26T14:08:27;7.10;99.90
2757;DHT22;1386;50.862;6.494;2024-02-26T14:10:56;7.10;99.90
2757;DHT22;1386;50.862;6.494;2024-02-26T14:13:23;7.10;99.90
2757;DHT22;1386;50.862;6.494;2024-02-26T14:15:50;7.10;99.90
2757;DHT22;1386;50.862;6.494;2024-02-26T14:18:17;7.10;99.90
2757;DHT22;1386;50.862;6.494;2024-02-26T14:20:44;7.00;99.90
2757;DHT22;1386;50.862;6.494;2024-02-26T14:23:11;7.10;99.90
2757;DHT22;1386;50.862;6.494;2024-02-26T14:25:38;7.00;99.90
2757;DHT22;1386;50.862;6.494;2024-02-26T14:28:06;7.10;99.90
2757;DHT22;1386;50.862;6.494;2024-02-26T14:30:33;7.10;99.90
2757;DHT22;1386;50.862;6.494;2024-02-26T14:33:00;7.10;99.90
2757;DHT22;1386;50.862;6.494;2024-02-26T14:35:28;7.10;99.90
2757;DHT22;1386;50.862;6.494;2024-02-26T14:37:54;7.10;99.90
2757;DHT22;1386;50.862;6.494;2024-02-26T14:40:27;7.10;99.90
2757;DHT22;1386;50.862;6.494;2024-02-26T14:42:55;7.10;99.90
2757;DHT22;1386;50.862;6.494;2024-02-26T14:45:24;7.10;99.90
2757;DHT22;1386;50.862;6.494;2024-02-26T14:47:51;7.00;99.90
2757;DHT22;1386;50.862;6.494;2024-02-26T14:50:18;7.00;99.90
2757;DHT22;1386;50.862;6.494;2024-02-26T14:52:57;7.00;99.90
2757;DHT22;1386;50.862;6.494;2024-02-26T14:55:33;7.00;99.90
2757;DHT22;1386;50.862;6.494;2024-02-26T14:58:20;7.00;99.90
2757;DHT22;1386;50.862;6.494;2024-02-26T15:00:58;7.10;99.90
2757;DHT22;1386;50.862;6.494;2024-02-26T15:03:45;7.00;99.90
2757;DHT22;1386;50.862;6.494;2024-02-26T15:06:32;7.00;99.90
2757;DHT22;1386;50.862;6.494;2024-02-26T15:11:56;7.00;99.90
2757;DHT22;1386;50.862;6.494;2024-02-26T15:14:34;7.00;99.90
2757;DHT22;1386;50.862;6.494;2024-02-26T15:17:19;7.00;99.90
2757;DHT22;1386;50.862;6.494;2024-02-26T15:19:56;7.00;99.90
2757;DHT22;1386;50.862;6.494;2024-02-26T15:22:32;7.00;99.90
2757;DHT22;1386;50.862;6.494;2024-02-26T15:25:17;7.00;99.90
2757;DHT22;1386;50.862;6.494;2024-02-26T15:28:04;7.00;99.90
2757;DHT22;1386;50.862;6.494;2024-02-26T15:30:44;7.00;99.90
2757;DHT22;1386;50.862;6.494;2024-02-26T15:33:42;7.00;99.90
2757;DHT22;1386;50.862;6.494;2024-02-26T15:36:25;7.00;99.90
2757;DHT22;1386;50.862;6.494;2024-02-26T15:39:00;7.00;99.90
2757;DHT22;1386;50.862;6.494;2024-02-26T15:41:49;7.00;99.90
2757;DHT22;1386;50.862;6.494;2024-02-26T15:44:38;7.00;99.90
2757;DHT22;1386;50.862;6.494;2024-02-26T15:47:21;7.10;99.90
2757;DHT22;1386;50.862;6.494;2024-02-26T15:49:57;7.10;99.90
2757;DHT22;1386;50.862;6.494;2024-02-26T15:52:24;7.10;99.90
2757;DHT22;1386;50.862;6.494;2024-02-26T15:55:07;7.10;99.90
2757;DHT22;1386;50.862;6.494;2024-02-26T15:57:51;7.20;99.90
2757;DHT22;1386;50.862;6.494;2024-02-26T16:00:38;7.20;99.90
2757;DHT22;1386;50.862;6.494;2024-02-26T16:03:17;7.20;99.90
2757;DHT22;1386;50.862;6.494;2024-02-26T16:05:49;7.20;99.90
2757;DHT22;1386;50.862;6.494;2024-02-26T16:08:21;7.20;99.90
2757;DHT22;1386;50.862;6.494;2024-02-26T16:10:50;7.20;99.90
2757;DHT22;1386;50.862;6.494;2024-02-26T16:13:17;7.20;99.90
2757;DHT22;1386;50.862;6.494;2024-02-26T16:15:48;7.10;99.90
2757;DHT22;1386;50.862;6.494;2024-02-26T16:18:16;7.10;99.90
2757;DHT22;1386;50.862;6.494;2024-02-26T16:20:43;7.10;99.90
2757;DHT22;1386;50.862;6.494;2024-02-26T16:23:11;7.10;99.90
2757;DHT22;1386;50.862;6.494;2024-02-26T16:25:38;7.10;99.90
2757;DHT22;1386;50.862;6.494;2024-02-26T16:28:05;7.10;99.90
2757;DHT22;1386;50.862;6.494;2024-02-26T16:30:40;7.10;99.90
2757;DHT22;1386;50.862;6.494;2024-02-26T16:33:13;7.10;99.90
2757;DHT22;1386;50.862;6.494;2024-02-26T16:35:47;7.10;99.90
2757;DHT22;1386;50.862;6.494;2024-02-26T16:38:22;7.10;99.90
2757;DHT22;1386;50.862;6.494;2024-02-26T16:40:49;7.10;99.90
2757;DHT22;1386;50.862;6.494;2024-02-26T16:43:16;7.10;99.90
2757;DHT22;1386;50.862;6.494;2024-02-26T16:45:43;7.10;99.90
2757;DHT22;1386;50.862;6.494;2024-02-26T16:48:09;7.10;99.90
2757;DHT22;1386;50.862;6.494;2024-02-26T16:50:36;7.10;99.90
2757;DHT22;1386;50.862;6.494;2024-02-26T16:53:03;7.10;99.90
2757;DHT22;1386;50.862;6.494;2024-02-26T16:55:31;7.00;99.90
2757;DHT22;1386;50.862;6.494;2024-02-26T16:57:58;7.10;99.90
2757;DHT22;1386;50.862;6.494;2024-02-26T17:00:25;7.10;99.90
2757;DHT22;1386;50.862;6.494;2024-02-26T17:02:52;7.10;99.90
2757;DHT22;1386;50.862;6.494;2024-02-26T17:05:21;7.10;99.90
2757;DHT22;1386;50.862;6.494;2024-02-26T17:07:48;7.10;99.90
2757;DHT22;1386;50.862;6.494;2024-02-26T17:10:15;7.00;99.90
2757;DHT22;1386;50.862;6.494;2024-02-26T17:12:44;7.00;99.90
2757;DHT22;1386;50.862;6.494;2024-02-26T17:15:11;7.00;99.90
2757;DHT22;1386;50.862;6.494;2024-02-26T17:17:38;7.00;99.90
2757;DHT22;1386;50.862;6.494;2024-02-26T17:20:06;7.00;99.90
2757;DHT22;1386;50.862;6.494;2024-02-26T17:22:33;6.90;99.90
2757;DHT22;1386;50.862;6.494;2024-02-26T17:25:00;6.90;99.90
2757;DHT22;1386;50.862;6.494;2024-02-26T17:27:27;6.90;99.90
2757;DHT22;1386;50.862;6.494;2024-02-26T17:29:56;6.90;99.90
2757;DHT22;1386;50.862;6.494;2024-02-26T17:32:22;6.90;99.90
2757;DHT22;1386;50.862;6.494;2024-02-26T17:34:49;6.90;99.90
2757;DHT22;1386;50.862;6.494;2024-02-26T17:37:17;6.90;99.90
2757;DHT22;1386;50.862;6.494;2024-02-26T17:39:43;6.90;99.90
2757;DHT22;1386;50.862;6.494;2024-02-26T17:42:10;6.90;99.90
2757;DHT22;1386;50.862;6.494;2024-02-26T17:44:37;6.90;99.90
2757;DHT22;1386;50.862;6.494;2024-02-26T17:47:29;6.80;99.90
2757;DHT22;1386;50.862;6.494;2024-02-26T17:50:15;6.80;99.90
2757;DHT22;1386;50.862;6.494;2024-02-26T17:53:03;6.90;99.90
2757;DHT22;1386;50.862;6.494;2024-02-26T17:55:51;6.90;99.90
2757;DHT22;1386;50.862;6.494;2024-02-26T17:58:35;6.80;99.90
2757;DHT22;1386;50.862;6.494;2024-02-26T18:01:16;6.80;99.90
2757;DHT22;1386;50.862;6.494;2024-02-26T18:03:58;6.80;99.90
2757;DHT22;1386;50.862;6.494;2024-02-26T18:06:25;6.80;99.90
2757;DHT22;1386;50.862;6.494;2024-02-26T18:08:52;6.70;99.90
2757;DHT22;1386;50.862;6.494;2024-02-26T18:11:19;6.70;99.90
2757;DHT22;1386;50.862;6.494;2024-02-26T18:13:46;6.70;99.90
2757;DHT22;1386;50.862;6.494;2024-02-26T18:16:12;6.70;99.90
2757;DHT22;1386;50.862;6.494;2024-02-26T18:18:40;6.70;99.90
2757;DHT22;1386;50.862;6.494;2024-02-26T18:21:13;6.70;99.90
2757;DHT22;1386;50.862;6.494;2024-02-26T18:23:42;6.70;99.90
2757;DHT22;1386;50.862;6.494;2024-02-26T18:26:09;6.70;99.90
2757;DHT22;1386;50.862;6.494;2024-02-26T18:28:36;6.70;99.90
2757;DHT22;1386;50.862;6.494;2024-02-26T18:31:03;6.70;99.90
2757;DHT22;1386;50.862;6.494;2024-02-26T18:33:30;6.70;99.90
2757;DHT22;1386;50.862;6.494;2024-02-26T18:36:09;6.70;99.90
2757;DHT22;1386;50.862;6.494;2024-02-26T18:38:58;6.70;99.90
2757;DHT22;1386;50.862;6.494;2024-02-26T18:41:49;6.70;99.90
2757;DHT22;1386;50.862;6.494;2024-02-26T18:44:47;6.70;99.90
2757;DHT22;1386;50.862;6.494;2024-02-26T18:47:29;6.70;99.90
2757;DHT22;1386;50.862;6.494;2024-02-26T18:50:16;6.70;99.90
2757;DHT22;1386;50.862;6.494;2024-02-26T18:52:45;6.70;99.90
2757;DHT22;1386;50.862;6.494;2024-02-26T18:55:15;6.70;99.90
2757;DHT22;1386;50.862;6.494;2024-02-26T18:58:00;6.70;99.90
2757;DHT22;1386;50.862;6.494;2024-02-26T19:03:48;6.70;99.90
2757;DHT22;1386;50.862;6.494;2024-02-26T19:06:23;6.70;99.90
2757;DHT22;1386;50.862;6.494;2024-02-26T19:09:03;6.70;99.90
2757;DHT22;1386;50.862;6.494;2024-02-26T19:11:44;6.70;99.90
2757;DHT22;1386;50.862;6.494;2024-02-26T19:14:25;6.70;99.90
2757;DHT22;1386;50.862;6.494;2024-02-26T19:17:02;6.70;99.90
2757;DHT22;1386;50.862;6.494;2024-02-26T19:19:52;6.70;99.90
2757;DHT22;1386;50.862;6.494;2024-02-26T19:22:23;6.70;99.90
2757;DHT22;1386;50.862;6.494;2024-02-26T19:24:50;6.60;99.90
2757;DHT22;1386;50.862;6.494;2024-02-26T19:27:19;6.60;99.90
2757;DHT22;1386;50.862;6.494;2024-02-26T19:29:46;6.60;99.90
2757;DHT22;1386;50.862;6.494;2024-02-26T19:32:13;6.60;99.90
2757;DHT22;1386;50.862;6.494;2024-02-26T19:34:39;6.70;99.90
2757;DHT22;1386;50.862;6.494;2024-02-26T19:37:07;6.70;99.90
2757;DHT22;1386;50.862;6.494;2024-02-26T19:39:34;6.70;99.90
2757;DHT22;1386;50.862;6.494;2024-02-26T19:42:01;6.70;99.90
2757;DHT22;1386;50.862;6.494;2024-02-26T19:44:29;6.60;99.90
2757;DHT22;1386;50.862;6.494;2024-02-26T19:46:56;6.60;99.90
2757;DHT22;1386;50.862;6.494;2024-02-26T19:49:23;6.70;99.90
2757;DHT22;1386;50.862;6.494;2024-02-26T19:51:50;6.70;99.90
2757;DHT22;1386;50.862;6.494;2024-02-26T19:54:17;6.70;99.90
2757;DHT22;1386;50.862;6.494;2024-02-26T19:56:44;6.70;99.90
2757;DHT22;1386;50.862;6.494;2024-02-26T20:03:14;6.60;99.90
2757;DHT22;1386;50.862;6.494;2024-02-26T20:05:55;6.60;99.90
2757;DHT22;1386;50.862;6.494;2024-02-26T20:08:38;6.70;99.90
2757;DHT22;1386;50.862;6.494;2024-02-26T20:11:21;6.70;99.90
2757;DHT22;1386;50.862;6.494;2024-02-26T20:14:19;6.60;99.90
2757;DHT22;1386;50.862;6.494;2024-02-26T20:17:21;6.70;99.90
2757;DHT22;1386;50.862;6.494;2024-02-26T20:19:57;6.70;99.90
2757;DHT22;1386;50.862;6.494;2024-02-26T20:22:27;6.70;99.90
2757;DHT22;1386;50.862;6.494;2024-02-26T20:25:37;6.70;99.90
2757;DHT22;1386;50.862;6.494;2024-02-26T20:28:29;6.70;99.90
2757;DHT22;1386;50.862;6.494;2024-02-26T20:31:04;6.70;99.90
2757;DHT22;1386;50.862;6.494;2024-02-26T20:33:49;6.70;99.90
2757;DHT22;1386;50.862;6.494;2024-02-26T20:36:33;6.70;99.90
2757;DHT22;1386;50.862;6.494;2024-02-26T20:39:13;6.70;99.90
2757;DHT22;1386;50.862;6.494;2024-02-26T20:41:55;6.70;99.90
2757;DHT22;1386;50.862;6.494;2024-02-26T20:44:37;6.70;99.90
2757;DHT22;1386;50.862;6.494;2024-02-26T20:47:28;6.70;99.90
2757;DHT22;1386;50.862;6.494;2024-02-26T20:50:15;6.70;99.90
2757;DHT22;1386;50.862;6.494;2024-02-26T20:52:58;6.70;99.90
2757;DHT22;1386;50.862;6.494;2024-02-26T20:55:42;6.70;99.90
2757;DHT22;1386;50.862;6.494;2024-02-26T20:58:24;6.80;99.90
2757;DHT22;1386;50.862;6.494;2024-02-26T21:01:09;6.80;99.90
2757;DHT22;1386;50.862;6.494;2024-02-26T21:03:42;6.70;99.90
2757;DHT22;1386;50.862;6.494;2024-02-26T21:06:21;6.70;99.90
2757;DHT22;1386;50.862;6.494;2024-02-26T21:08:49;6.70;99.90
2757;DHT22;1386;50.862;6.494;2024-02-26T21:11:19;6.70;99.90
2757;DHT22;1386;50.862;6.494;2024-02-26T21:13:47;6.70;99.90
2757;DHT22;1386;50.862;6.494;2024-02-26T21:16:14;6.70;99.90
2757;DHT22;1386;50.862;6.494;2024-02-26T21:18:41;6.70;99.90
2757;DHT22;1386;50.862;6.494;2024-02-26T21:21:09;6.70;99.90
2757;DHT22;1386;50.862;6.494;2024-02-26T21:23:37;6.70;99.90
2757;DHT22;1386;50.862;6.494;2024-02-26T21:26:18;6.70;99.90
2757;DHT22;1386;50.862;6.494;2024-02-26T21:28:53;6.70;99.90
2757;DHT22;1386;50.862;6.494;2024-02-26T21:31:29;6.70;99.90
2757;DHT22;1386;50.862;6.494;2024-02-26T21:34:11;6.70;99.90
2757;DHT22;1386;50.862;6.494;2024-02-26T21:36:48;6.70;99.90
2757;DHT22;1386;50.862;6.494;2024-02-26T21:39:15;6.70;99.90
2757;DHT22;1386;50.862;6.494;2024-02-26T21:41:44;6.70;99.90
2757;DHT22;1386;50.862;6.494;2024-02-26T21:44:10;6.80;99.90
2757;DHT22;1386;50.862;6.494;2024-02-26T21:46:39;6.80;99.90
2757;DHT22;1386;50.862;6.494;2024-02-26T21:49:09;6.70;99.90
2757;DHT22;1386;50.862;6.494;2024-02-26T21:51:42;6.70;99.90
2757;DHT22;1386;50.862;6.494;2024-02-26T21:54:10;6.70;99.90
2757;DHT22;1386;50.862;6.494;2024-02-26T21:56:37;6.70;99.90
2757;DHT22;1386;50.862;6.494;2024-02-26T21:59:07;6.70;99.90
2757;DHT22;1386;50.862;6.494;2024-02-26T22:01:34;6.70;99.90
2757;DHT22;1386;50.862;6.494;2024-02-26T22:04:01;6.70;99.90
2757;DHT22;1386;50.862;6.494;2024-02-26T22:06:28;6.70;99.90
2757;DHT22;1386;50.862;6.494;2024-02-26T22:08:55;6.70;99.90
2757;DHT22;1386;50.862;6.494;2024-02-26T22:11:23;6.70;99.90
2757;DHT22;1386;50.862;6.494;2024-02-26T22:13:50;6.70;99.90
2757;DHT22;1386;50.862;6.494;2024-02-26T22:16:20;6.70;99.90
2757;DHT22;1386;50.862;6.494;2024-02-26T22:18:47;6.70;99.90
2757;DHT22;1386;50.862;6.494;2024-02-26T22:21:14;6.70;99.90
2757;DHT22;1386;50.862;6.494;2024-02-26T22:23:58;6.70;99.90
2757;DHT22;1386;50.862;6.494;2024-02-26T22:26:38;6.60;99.90
2757;DHT22;1386;50.862;6.494;2024-02-26T22:29:19;6.60;99.90
2757;DHT22;1386;50.862;6.494;2024-02-26T22:32:07;6.60;99.90
2757;DHT22;1386;50.862;6.494;2024-02-26T22:34:39;6.60;99.90
2757;DHT22;1386;50.862;6.494;2024-02-26T22:37:10;6.60;99.90
2757;DHT22;1386;50.862;6.494;2024-02-26T22:39:52;6.60;99.90
2757;DHT22;1386;50.862;6.494;2024-02-26T22:42:24;6.60;99.90
2757;DHT22;1386;50.862;6.494;2024-02-26T22:45:11;6.60;99.90
2757;DHT22;1386;50.862;6.494;2024-02-26T22:47:58;6.60;99.90
2757;DHT22;1386;50.862;6.494;2024-02-26T22:50:43;6.60;99.90
2757;DHT22;1386;50.862;6.494;2024-02-26T22:53:20;6.60;99.90
2757;DHT22;1386;50.862;6.494;2024-02-26T22:55:52;6.60;99.90
2757;DHT22;1386;50.862;6.494;2024-02-26T22:58:35;6.50;99.90
2757;DHT22;1386;50.862;6.494;2024-02-26T23:03:37;6.50;99.90
2757;DHT22;1386;50.862;6.494;2024-02-26T23:06:05;6.50;99.90
2757;DHT22;1386;50.862;6.494;2024-02-26T23:08:32;6.50;99.90
2757;DHT22;1386;50.862;6.494;2024-02-26T23:10:59;6.50;99.90
2757;DHT22;1386;50.862;6.494;2024-02-26T23:13:27;6.40;99.90
2757;DHT22;1386;50.862;6.494;2024-02-26T23:15:56;6.40;99.90
2757;DHT22;1386;50.862;6.494;2024-02-26T23:18:23;6.40;99.90
2757;DHT22;1386;50.862;6.494;2024-02-26T23:20:52;6.40;99.90
2757;DHT22;1386;50.862;6.494;2024-02-26T23:23:19;6.40;99.90
2757;DHT22;1386;50.862;6.494;2024-02-26T23:25:46;6.40;99.90
2757;DHT22;1386;50.862;6.494;2024-02-26T23:28:13;6.40;99.90
2757;DHT22;1386;50.862;6.494;2024-02-26T23:30:41;6.40;99.90
2757;DHT22;1386;50.862;6.494;2024-02-26T23:33:08;6.30;99.90
2757;DHT22;1386;50.862;6.494;2024-02-26T23:35:35;6.30;99.90
2757;DHT22;1386;50.862;6.494;2024-02-26T23:38:03;6.30;99.90